Time;durP1;ratioP1;P1;durP2;ratioP2;P2;SDS_P1;SDS_P2;PMS_P1;PMS_P2;Temp;Humidity;BMP_temperature;BMP_pressure;BME280_temperature;BME280_humidity;BME280_pressure;Samples;Min_cycle;Max_cycle;Signal;HPM_P1;HPM_P2
2021/08/28 00:00:52;;;;;;;15.10;8.53;;;;;;;16.59;83.45;100934.70;1826731;78;28512;-59
2021/08/28 00:03:22;;;;;;;14.25;8.33;;;;;;;16.63;83.22;100947.42;1765089;80;25747;-59
2021/08/28 00:05:50;;;;;;;14.25;8.55;;;;;;;16.59;83.04;100940.12;1766479;81;25752;-59
2021/08/28 00:08:17;;;;;;;15.43;8.48;;;;;;;16.63;82.95;100931.65;1784277;79;26461;-60
2021/08/28 00:10:46;;;;;;;19.25;9.08;;;;;;;16.65;82.80;100935.88;1792724;79;25863;-59
2021/08/28 00:13:15;;;;;;;16.02;8.75;;;;;;;16.64;82.33;100936.90;1800977;79;27457;-59
2021/08/28 00:15:43;;;;;;;13.15;8.45;;;;;;;16.64;82.45;100932.83;1800659;79;25906;-59
2021/08/28 00:18:10;;;;;;;14.10;8.85;;;;;;;16.72;82.53;100934.66;1801038;79;25764;-59
2021/08/28 00:20:38;;;;;;;15.35;9.10;;;;;;;16.78;82.42;100923.12;1801333;79;26445;-59
2021/08/28 00:23:06;;;;;;;19.62;9.55;;;;;;;16.78;81.53;100916.83;1788864;79;25791;-59
2021/08/28 00:25:35;;;;;;;15.30;9.13;;;;;;;16.80;81.85;100920.22;1742055;80;26848;-59
2021/08/28 00:28:03;;;;;;;15.78;8.38;;;;;;;16.80;81.67;100925.66;1786332;78;25847;-59
2021/08/28 00:30:30;;;;;;;16.05;8.28;;;;;;;16.80;81.61;100929.23;1783161;79;25756;-59
2021/08/28 00:33:12;;;;;;;15.63;9.23;;;;;;;16.78;81.21;100951.65;1757671;81;25839;-59
2021/08/28 00:35:40;;;;;;;17.87;9.80;;;;;;;16.71;81.05;100964.23;1762265;79;25849;-59
2021/08/28 00:38:08;;;;;;;25.02;11.22;;;;;;;16.64;80.91;100969.49;1766034;79;27470;-59
2021/08/28 00:40:37;;;;;;;15.08;8.48;;;;;;;16.72;81.37;100991.70;1764119;79;25753;-59
2021/08/28 00:43:05;;;;;;;18.57;9.45;;;;;;;16.79;81.24;100999.53;1800240;79;25696;-60
2021/08/28 00:45:37;;;;;;;18.60;9.20;;;;;;;16.81;81.22;100987.95;1802346;79;26061;-60
2021/08/28 00:48:11;;;;;;;16.40;9.38;;;;;;;16.83;81.04;100983.20;1802620;78;26489;-60
2021/08/28 00:50:42;;;;;;;16.45;9.10;;;;;;;16.85;80.94;101005.63;1795111;78;27505;-59
2021/08/28 00:53:13;;;;;;;17.75;9.65;;;;;;;16.79;80.50;101007.69;1791175;79;25754;-59
2021/08/28 00:55:49;;;;;;;20.27;9.88;;;;;;;16.74;80.45;101010.91;1792568;79;25727;-59
2021/08/28 00:58:18;;;;;;;18.57;9.33;;;;;;;16.75;80.66;101021.25;1793854;79;26082;-60
2021/08/28 01:00:53;;;;;;;16.57;9.80;;;;;;;16.73;80.32;101034.16;1793455;79;25773;-59
2021/08/28 01:03:30;;;;;;;20.52;10.35;;;;;;;16.66;80.24;101029.06;1769542;80;28203;-61
2021/08/28 01:06:24;;;;;;;17.30;9.90;;;;;;;16.68;80.46;101024.32;1758065;80;25818;-60
2021/08/28 01:09:25;;;;;;;22.52;10.08;;;;;;;16.66;80.13;101012.77;1756368;81;25795;-61
2021/08/28 01:12:17;;;;;;;18.82;10.10;;;;;;;16.52;79.88;101016.52;1735402;81;26541;-60
2021/08/28 01:15:00;;;;;;;14.53;9.50;;;;;;;16.53;80.61;101011.92;1755884;81;25765;-60
2021/08/28 01:17:31;;;;;;;13.98;9.08;;;;;;;16.61;80.49;101016.52;1757929;81;28177;-60
2021/08/28 01:20:22;;;;;;;16.52;9.93;;;;;;;16.64;80.21;101016.16;1757799;81;25782;-61
2021/08/28 01:23:08;;;;;;;15.38;9.88;;;;;;;16.69;80.33;101007.84;1758067;81;26570;-61
2021/08/28 01:25:43;;;;;;;16.57;10.10;;;;;;;16.76;80.20;101000.39;1733617;81;26831;-60
2021/08/28 01:28:13;;;;;;;18.85;10.38;;;;;;;16.81;80.02;101000.70;1766323;79;25728;-60
2021/08/28 01:30:42;;;;;;;18.07;10.10;;;;;;;16.87;80.47;101012.23;1793732;78;28132;-61
2021/08/28 01:33:12;;;;;;;20.05;10.63;;;;;;;16.96;80.53;101009.05;1793770;78;25775;-60
2021/08/28 01:35:43;;;;;;;16.15;10.28;;;;;;;16.96;79.85;101017.20;1771276;79;25868;-61
2021/08/28 01:38:13;;;;;;;21.65;9.85;;;;;;;17.00;80.21;101014.45;1792681;78;25956;-61
2021/08/28 01:40:42;;;;;;;12.88;8.93;;;;;;;17.07;80.31;101003.25;1778632;80;25757;-61
2021/08/28 01:43:10;;;;;;;15.32;9.38;;;;;;;17.12;80.07;101005.45;1782372;79;27456;-61
2021/08/28 01:45:39;;;;;;;25.20;9.80;;;;;;;17.16;80.14;101007.65;1782296;80;25822;-61
2021/08/28 01:48:08;;;;;;;18.50;9.80;;;;;;;17.15;79.35;101011.39;1782388;79;25713;-62
2021/08/28 01:50:35;;;;;;;13.05;9.45;;;;;;;17.17;79.76;101008.48;1782357;79;26173;-61
2021/08/28 01:53:08;;;;;;;20.50;10.85;;;;;;;17.19;79.70;101019.52;1776443;79;25784;-62
2021/08/28 01:55:35;;;;;;;15.83;10.32;;;;;;;17.20;79.60;101012.23;1782406;79;27455;-60
2021/08/28 01:58:06;;;;;;;18.15;9.80;;;;;;;17.23;79.43;101009.66;1782433;79;25783;-60
2021/08/28 02:00:34;;;;;;;16.97;9.55;;;;;;;17.21;79.13;101009.84;1780343;80;25784;-60
2021/08/28 02:03:02;;;;;;;14.35;9.63;;;;;;;17.23;79.27;101023.25;1786342;80;26276;-60
2021/08/28 02:05:36;;;;;;;17.90;10.13;;;;;;;17.27;79.47;101028.17;1787750;80;25976;-60
2021/08/28 02:08:09;;;;;;;15.58;9.45;;;;;;;17.33;79.56;101035.62;1787849;79;27411;-60
2021/08/28 02:10:58;;;;;;;16.52;10.38;;;;;;;17.35;79.12;101033.59;1787875;79;25827;-60
2021/08/28 02:13:33;;;;;;;19.10;10.75;;;;;;;17.35;79.04;101040.87;1788020;80;25837;-60
2021/08/28 02:16:14;;;;;;;15.18;9.55;;;;;;;17.34;78.61;101044.12;1786249;79;26869;-59
2021/08/28 02:18:56;;;;;;;14.93;10.00;;;;;;;17.30;78.50;101046.84;1788063;79;25731;-59
2021/08/28 02:21:34;;;;;;;17.80;9.73;;;;;;;17.33;78.47;101034.78;1784193;80;27547;-60
2021/08/28 02:24:10;;;;;;;17.02;9.10;;;;;;;17.34;78.46;101022.89;1787792;80;26000;-60
2021/08/28 02:26:47;;;;;;;19.65;11.12;;;;;;;17.35;78.28;101019.13;1786726;80;25784;-60
2021/08/28 02:29:25;;;;;;;19.82;9.80;;;;;;;17.38;78.49;101017.95;1785294;78;26698;-60
2021/08/28 02:31:53;;;;;;;19.55;10.43;;;;;;;17.44;78.66;101019.95;1781591;79;26647;-61
2021/08/28 02:34:21;;;;;;;16.52;10.10;;;;;;;17.44;78.45;101018.07;1783057;80;27441;-60
2021/08/28 02:36:50;;;;;;;12.88;9.70;;;;;;;17.44;78.39;101034.39;1782442;79;25715;-60
2021/08/28 02:39:19;;;;;;;16.65;9.58;;;;;;;17.48;78.76;101036.27;1800567;78;26398;-60
2021/08/28 02:41:49;;;;;;;26.62;9.78;;;;;;;17.50;78.87;101030.98;1832464;78;26804;-60
2021/08/28 02:44:17;;;;;;;20.25;9.88;;;;;;;17.50;78.40;101038.28;1832709;78;25770;-60
2021/08/28 02:46:47;;;;;;;19.73;9.20;;;;;;;17.41;77.39;101040.69;1834612;78;27464;-59
2021/08/28 02:49:17;;;;;;;15.58;10.08;;;;;;;17.32;77.51;101050.77;1839953;77;25821;-59
2021/08/28 02:51:46;;;;;;;18.23;9.50;;;;;;;17.29;77.96;101062.84;1843560;77;26446;-59
2021/08/28 02:54:18;;;;;;;15.65;9.93;;;;;;;17.25;77.24;101060.12;1843978;77;26492;-60
2021/08/28 02:56:50;;;;;;;14.87;10.10;;;;;;;17.13;77.53;101046.05;1843721;77;25785;-60
2021/08/28 02:59:18;;;;;;;17.35;10.45;;;;;;;17.09;77.33;101042.48;1820159;77;28324;-60
2021/08/28 03:01:46;;;;;;;17.75;10.55;;;;;;;17.10;77.54;101040.11;1836335;77;25825;-60
2021/08/28 03:04:17;;;;;;;14.10;9.35;;;;;;;17.15;77.96;101034.49;1830340;76;25763;-60
2021/08/28 03:06:47;;;;;;;14.68;9.45;;;;;;;17.19;77.97;101019.52;1830261;78;26746;-60
2021/08/28 03:09:16;;;;;;;15.55;10.30;;;;;;;17.21;77.36;101021.55;1830582;78;25785;-60
2021/08/28 03:11:46;;;;;;;18.05;9.70;;;;;;;17.24;77.59;101021.71;1830586;77;26938;-59
2021/08/28 03:14:13;;;;;;;19.37;9.30;;;;;;;17.27;77.90;101008.27;1830474;77;25797;-60
2021/08/28 03:16:45;;;;;;;15.38;9.50;;;;;;;17.24;77.20;101001.84;1808663;78;25717;-59
2021/08/28 03:19:26;;;;;;;13.62;9.60;;;;;;;17.22;77.56;101015.59;1829173;76;27036;-60
2021/08/28 03:21:54;;;;;;;15.08;9.25;;;;;;;17.23;77.84;101021.90;1830402;77;25877;-59
2021/08/28 03:24:25;;;;;;;19.82;9.70;;;;;;;17.25;77.96;101028.02;1830472;76;27407;-60
2021/08/28 03:26:57;;;;;;;20.08;9.83;;;;;;;17.26;77.85;101033.80;1828540;78;26456;-59
2021/08/28 03:29:26;;;;;;;20.62;10.15;;;;;;;17.24;77.89;101042.10;1806479;78;25755;-60
2021/08/28 03:31:55;;;;;;;14.78;9.10;;;;;;;17.26;78.11;101035.98;1798848;79;26107;-60
2021/08/28 03:34:23;;;;;;;19.27;8.65;;;;;;;17.27;78.25;101041.77;1799090;78;25800;-63
2021/08/28 03:36:51;;;;;;;18.40;9.58;;;;;;;17.26;78.12;101041.95;1798700;78;27850;-60
2021/08/28 03:39:19;;;;;;;17.73;10.20;;;;;;;17.20;78.15;101053.84;1798707;78;25820;-59
2021/08/28 03:41:47;;;;;;;18.40;9.25;;;;;;;17.19;78.40;101043.98;1798743;78;25793;-60
2021/08/28 03:44:17;;;;;;;14.93;9.23;;;;;;;17.20;78.63;101052.48;1799072;79;26845;-60
2021/08/28 03:46:49;;;;;;;19.10;9.60;;;;;;;17.21;78.79;101051.46;1794609;77;25805;-61
2021/08/28 03:49:17;;;;;;;15.93;9.18;;;;;;;17.20;78.44;101048.40;1843651;77;27499;-59
2021/08/28 03:51:44;;;;;;;18.95;9.13;;;;;;;17.15;78.27;101057.60;1843746;77;25871;-59
2021/08/28 03:54:11;;;;;;;23.22;10.05;;;;;;;17.15;78.45;101064.39;1843584;77;25838;-60
2021/08/28 03:56:39;;;;;;;20.02;9.55;;;;;;;17.18;78.76;101064.03;1843953;77;26401;-60
2021/08/28 03:59:06;;;;;;;17.30;9.55;;;;;;;17.21;78.87;101058.26;1843733;77;25710;-59
2021/08/28 04:01:34;;;;;;;20.15;9.70;;;;;;;17.26;78.92;101061.81;1837617;77;27443;-59
2021/08/28 04:04:04;;;;;;;18.45;9.53;;;;;;;17.30;78.86;101062.31;1829902;76;25719;-59
2021/08/28 04:06:32;;;;;;;15.48;9.53;;;;;;;17.35;78.83;101058.55;1830075;76;25821;-59
2021/08/28 04:08:59;;;;;;;15.13;9.65;;;;;;;17.40;78.94;101059.39;1830134;78;26500;-59
2021/08/28 04:11:27;;;;;;;19.30;8.68;;;;;;;17.43;79.08;101054.48;1830474;78;25785;-59
2021/08/28 04:13:55;;;;;;;16.48;9.15;;;;;;;17.44;78.52;101056.67;1830422;78;27499;-61
2021/08/28 04:16:24;;;;;;;13.93;8.58;;;;;;;17.40;78.31;101058.03;1828911;76;25706;-60
2021/08/28 04:19:07;;;;;;;14.40;8.43;;;;;;;17.40;78.40;101067.55;1829299;78;25738;-62
2021/08/28 04:21:50;;;;;;;16.27;8.88;;;;;;;17.39;78.53;101067.23;1673703;81;26093;-62
2021/08/28 04:24:42;;;;;;;16.45;9.23;;;;;;;17.40;78.63;101062.11;1679612;83;25500;-61
2021/08/28 04:27:40;;;;;;;19.40;9.28;;;;;;;17.38;78.54;101071.81;1784869;77;26440;-62
2021/08/28 04:33:24;;;;;;;17.42;8.38;;;;;;;17.28;78.07;101077.45;1809665;78;26105;-61
2021/08/28 04:36:04;;;;;;;16.87;9.65;;;;;;;17.28;78.42;101080.17;1794376;79;26664;-61
2021/08/28 04:38:34;;;;;;;15.03;8.95;;;;;;;17.27;78.32;101083.05;1807264;78;25827;-61
2021/08/28 04:41:04;;;;;;;28.07;9.33;;;;;;;17.28;78.45;101090.18;1810055;78;28166;-62
2021/08/28 04:43:34;;;;;;;15.23;8.55;;;;;;;17.26;78.37;101088.17;1814207;78;25824;-60
2021/08/28 04:46:15;;;;;;;18.87;8.85;;;;;;;17.25;78.54;101087.83;1784962;78;26358;-62
2021/08/28 04:48:47;;;;;;;19.32;9.53;;;;;;;17.26;78.64;101093.61;1797793;79;26115;-61
2021/08/28 04:51:31;;;;;;;16.50;9.25;;;;;;;17.26;78.75;101097.69;1776122;79;25854;-60
2021/08/28 04:53:58;;;;;;;24.63;9.75;;;;;;;17.28;78.81;101093.77;1798770;78;27462;-60
2021/08/28 04:56:26;;;;;;;19.48;9.80;;;;;;;17.36;78.93;101097.83;1798793;79;25783;-60
2021/08/28 04:58:53;;;;;;;17.77;9.68;;;;;;;17.44;78.71;101101.02;1798676;79;25734;-60
2021/08/28 05:01:41;;;;;;;19.77;10.55;;;;;;;17.50;78.49;101096.27;1820593;77;25953;-60
2021/08/28 05:04:18;;;;;;;18.35;9.80;;;;;;;17.57;78.39;101101.00;1842230;77;25686;-60
2021/08/28 05:06:46;;;;;;;20.02;9.53;;;;;;;17.63;78.36;101103.02;1844264;77;27351;-60
2021/08/28 05:09:14;;;;;;;11.73;8.38;;;;;;;17.73;78.62;101100.94;1844787;77;26677;-60
2021/08/28 05:11:42;;;;;;;19.95;8.68;;;;;;;17.75;75.96;101097.54;1844979;77;25703;-60
2021/08/28 05:14:09;;;;;;;18.92;9.83;;;;;;;17.62;74.91;101097.23;1845140;77;26131;-60
2021/08/28 05:16:36;;;;;;;17.17;10.00;;;;;;;17.60;75.43;101103.38;1844943;77;25689;-61
2021/08/28 05:19:05;;;;;;;14.23;9.78;;;;;;;17.71;76.19;101102.98;1843565;77;28234;-60
2021/08/28 05:21:32;;;;;;;17.75;9.45;;;;;;;17.84;76.37;101110.09;1844946;77;25794;-61
2021/08/28 05:24:21;;;;;;;19.27;9.10;;;;;;;17.95;76.36;101109.38;1796818;77;25766;-62
2021/08/28 05:27:17;;;;;;;;;;;;;;;;;;;;;
2021/08/28 05:29:54;;;;;;;20.02;9.13;;;;;;;18.14;76.56;101119.88;1840974;77;25713;-63
2021/08/28 05:32:45;;;;;;;;;;;;;;;;;;;;;
2021/08/28 05:35:12;;;;;;;19.00;8.65;;;;;;;18.29;75.97;101118.58;1745154;80;25852;-63
2021/08/28 05:37:47;;;;;;;15.63;7.58;;;;;;;18.35;75.18;101122.99;1841545;77;25472;-61
2021/08/28 05:40:20;;;;;;;14.65;8.03;;;;;;;18.40;75.29;101114.63;1835168;77;26812;-61
2021/08/28 05:42:48;;;;;;;15.08;8.35;;;;;;;18.46;75.02;101123.95;1850649;77;25740;-62
2021/08/28 05:45:15;;;;;;;15.58;7.78;;;;;;;18.51;75.19;101124.78;1851005;77;28148;-62
2021/08/28 05:47:44;;;;;;;13.50;8.18;;;;;;;18.50;74.60;101121.19;1814244;77;25786;-60
2021/08/28 05:50:12;;;;;;;12.58;7.00;;;;;;;18.45;73.97;101123.09;1800560;78;25794;-61
2021/08/28 05:52:40;;;;;;;14.90;8.80;;;;;;;18.42;73.49;101119.35;1800092;78;26167;-61
2021/08/28 05:55:10;;;;;;;16.62;7.37;;;;;;;18.39;73.89;101120.23;1806615;77;25826;-61
2021/08/28 05:57:38;;;;;;;15.10;7.37;;;;;;;18.40;73.85;101120.07;1811784;79;27450;-59
2021/08/28 06:00:08;;;;;;;12.95;6.78;;;;;;;18.41;74.21;101129.08;1812014;79;25475;-60
2021/08/28 06:02:39;;;;;;;12.33;6.95;;;;;;;18.46;74.39;101130.23;1841049;77;25694;-61
2021/08/28 06:05:10;;;;;;;9.58;5.67;;;;;;;18.49;74.42;101126.83;1821417;77;26111;-61
2021/08/28 06:07:45;;;;;;;10.72;7.35;;;;;;;18.44;73.42;101123.28;1841825;77;25734;-61
2021/08/28 06:10:30;;;;;;;11.43;6.08;;;;;;;18.36;73.04;101126.89;1844835;77;27497;-60
2021/08/28 06:13:14;;;;;;;;;;;;;;;18.33;73.29;101115.02;1844890;77;25799;-61
2021/08/28 06:15:49;;;;;;;10.98;7.08;;;;;;;18.28;72.64;101114.19;1836436;77;25680;-60
2021/08/28 06:18:16;;;;;;;10.35;6.60;;;;;;;18.22;73.01;101116.23;1835910;76;26109;-60
2021/08/28 06:20:43;;;;;;;11.12;6.97;;;;;;;18.20;72.71;101118.28;1845189;77;25702;-59
2021/08/28 06:23:11;;;;;;;12.05;7.42;;;;;;;18.07;72.06;101117.50;1841218;77;28500;-60
2021/08/28 06:25:46;;;;;;;13.05;7.85;;;;;;;17.97;72.07;101125.89;1807223;77;25789;-60
2021/08/28 06:28:12;;;;;;;14.58;6.67;;;;;;;17.89;72.18;101127.75;1840396;77;25406;-60
2021/08/28 06:30:42;;;;;;;16.75;7.62;;;;;;;17.82;72.24;101127.10;1845265;77;26075;-60
2021/08/28 06:33:10;;;;;;;9.38;6.62;;;;;;;17.79;72.44;101123.89;1844939;77;25438;-60
2021/08/28 06:35:37;;;;;;;11.12;6.70;;;;;;;17.80;72.80;101121.50;1845512;77;27385;-60
2021/08/28 06:38:05;;;;;;;13.15;6.87;;;;;;;17.81;72.78;101119.96;1818289;77;25900;-60
2021/08/28 06:40:50;;;;;;;15.65;6.75;;;;;;;17.86;73.11;101127.59;1823650;76;25641;-59
2021/08/28 06:43:22;;;;;;;14.15;7.67;;;;;;;17.93;72.98;101132.67;1807380;77;26154;-60
2021/08/28 06:46:07;;;;;;;17.12;9.15;;;;;;;18.01;73.43;101137.27;1844894;77;25679;-60
2021/08/28 06:48:54;;;;;;;9.13;6.35;;;;;;;18.09;73.31;101134.52;1841382;77;26931;-60
2021/08/28 06:51:39;;;;;;;10.50;6.58;;;;;;;18.21;72.15;101129.52;1838000;77;25721;-60
2021/08/28 06:54:17;;;;;;;9.80;5.65;;;;;;;18.34;72.08;101130.83;1750767;80;25785;-60
2021/08/28 06:56:58;;;;;;;19.35;9.38;;;;;;;18.42;72.34;101133.50;1785690;79;27282;-60
2021/08/28 06:59:43;;;;;;;10.48;6.37;;;;;;;18.51;72.13;101137.03;1827611;77;25883;-60
2021/08/28 07:02:12;;;;;;;7.67;5.12;;;;;;;18.55;71.43;101135.13;1818831;77;27665;-60
2021/08/28 07:04:41;;;;;;;9.50;5.92;;;;;;;18.58;70.62;101135.28;1817696;77;25618;-59
2021/08/28 07:07:19;;;;;;;8.80;5.67;;;;;;;18.72;70.88;101130.94;1839152;77;25684;-59
2021/08/28 07:09:47;;;;;;;9.40;5.47;;;;;;;18.84;70.96;101137.63;1831203;78;26121;-60
2021/08/28 07:12:14;;;;;;;12.15;5.47;;;;;;;18.97;70.20;101136.22;1838541;77;25728;-59
2021/08/28 07:14:43;;;;;;;9.00;5.28;;;;;;;19.11;70.64;101146.31;1838562;77;27477;-60
2021/08/28 07:17:12;;;;;;;14.85;6.62;;;;;;;19.24;69.73;101142.96;1831266;77;25666;-60
2021/08/28 07:19:39;;;;;;;8.70;5.58;;;;;;;19.41;69.11;101138.73;1831663;76;25622;-60
2021/08/28 07:22:06;;;;;;;8.00;5.67;;;;;;;19.60;68.83;101126.42;1835906;77;25642;-60
2021/08/28 07:24:34;;;;;;;10.90;6.15;;;;;;;19.78;67.73;101126.03;1838776;77;25701;-59
2021/08/28 07:27:02;;;;;;;16.77;6.45;;;;;;;19.93;68.22;101131.52;1841829;77;27069;-60
2021/08/28 07:29:38;;;;;;;14.85;6.75;;;;;;;20.09;66.98;101133.21;1844753;77;25547;-60
2021/08/28 07:32:06;;;;;;;12.98;7.08;;;;;;;20.25;66.96;101139.82;1823718;77;25415;-59
2021/08/28 07:34:36;;;;;;;9.48;5.70;;;;;;;20.47;67.25;101137.14;1835907;77;26032;-60
2021/08/28 07:37:05;;;;;;;11.90;6.22;;;;;;;20.62;66.55;101135.70;1836234;77;25683;-60
2021/08/28 07:39:33;;;;;;;11.97;5.70;;;;;;;20.74;66.08;101136.92;1836062;77;27482;-59
2021/08/28 07:42:02;;;;;;;10.30;5.42;;;;;;;20.75;64.23;101139.16;1832650;77;25891;-59
2021/08/28 07:44:29;;;;;;;7.35;5.00;;;;;;;20.78;64.32;101140.11;1811321;77;25623;-62
2021/08/28 07:46:57;;;;;;;8.85;5.70;;;;;;;20.83;64.50;101134.05;1837546;77;26176;-59
2021/08/28 07:49:26;;;;;;;8.60;5.20;;;;;;;20.85;64.17;101138.81;1839545;77;25887;-59
2021/08/28 07:51:53;;;;;;;9.90;6.00;;;;;;;20.85;63.58;101143.75;1825804;78;27457;-59
2021/08/28 07:54:21;;;;;;;9.18;5.35;;;;;;;20.83;63.04;101134.05;1825552;77;25770;-60
2021/08/28 07:56:49;;;;;;;8.83;5.25;;;;;;;20.83;62.40;101136.29;1836026;77;25712;-59
2021/08/28 07:59:15;;;;;;;10.72;5.40;;;;;;;20.80;62.25;101131.20;1835869;77;26109;-59
2021/08/28 08:01:43;;;;;;;9.93;5.35;;;;;;;20.83;61.53;101133.55;1822585;77;25742;-60
2021/08/28 08:04:10;;;;;;;9.85;5.47;;;;;;;20.82;61.35;101137.83;1830477;77;27454;-60
2021/08/28 08:06:45;;;;;;;7.37;5.35;;;;;;;20.88;61.88;101147.47;1781874;77;25767;-60
2021/08/28 08:09:15;;;;;;;7.37;5.00;;;;;;;21.02;62.38;101140.77;1826901;77;25924;-59
2021/08/28 08:11:50;;;;;;;9.28;4.80;;;;;;;21.06;61.33;101136.59;1830337;77;26607;-60
2021/08/28 08:14:17;;;;;;;6.60;4.65;;;;;;;21.16;61.02;101135.73;1844920;77;25906;-60
2021/08/28 08:17:03;;;;;;;12.85;4.85;;;;;;;21.20;60.61;101130.17;1844725;77;27327;-60
2021/08/28 08:19:38;;;;;;;7.97;4.42;;;;;;;21.24;60.64;101130.11;1786310;76;26691;-61
2021/08/28 08:22:24;;;;;;;8.83;4.28;;;;;;;21.29;60.21;101130.05;1829175;77;25773;-62
2021/08/28 08:24:53;;;;;;;9.28;4.15;;;;;;;21.40;58.15;101132.22;1799694;79;26120;-59
2021/08/28 08:27:39;;;;;;;8.58;3.80;;;;;;;21.47;56.89;101129.00;1800172;78;26008;-60
2021/08/28 08:30:09;;;;;;;5.92;3.72;;;;;;;21.53;56.18;101133.70;1801942;77;27494;-59
2021/08/28 08:32:37;;;;;;;7.75;3.98;;;;;;;21.55;57.18;101139.83;1834530;77;25697;-59
2021/08/28 08:35:06;;;;;;;8.93;3.55;;;;;;;21.56;56.10;101144.23;1841770;77;25813;-61
2021/08/28 08:37:34;;;;;;;8.83;3.50;;;;;;;21.55;54.12;101140.33;1844056;77;26747;-61
2021/08/28 08:40:01;;;;;;;6.25;3.35;;;;;;;21.45;52.73;101137.09;1844776;77;25829;-61
2021/08/28 08:42:32;;;;;;;6.15;2.65;;;;;;;21.35;52.98;101133.35;1843522;77;26932;-60
2021/08/28 08:45:00;;;;;;;8.35;3.42;;;;;;;21.30;54.31;101131.72;1844666;77;25735;-61
2021/08/28 08:47:28;;;;;;;4.70;3.37;;;;;;;21.38;53.87;101131.06;1837431;77;25712;-61
2021/08/28 08:49:56;;;;;;;5.58;3.50;;;;;;;21.45;53.70;101128.38;1844121;77;26089;-62
2021/08/28 08:52:26;;;;;;;5.50;3.17;;;;;;;21.56;53.75;101131.91;1846908;77;25714;-61
2021/08/28 08:54:56;;;;;;;6.15;4.05;;;;;;;21.72;53.89;101126.67;1842918;77;27446;-61
2021/08/28 08:57:24;;;;;;;8.60;4.00;;;;;;;21.86;54.31;101122.66;1844113;77;25765;-61
2021/08/28 08:59:51;;;;;;;8.00;3.30;;;;;;;21.99;54.73;101121.34;1839464;77;25797;-61
2021/08/28 09:02:19;;;;;;;5.80;3.70;;;;;;;22.05;54.20;101125.99;1818698;77;26639;-61
2021/08/28 09:05:06;;;;;;;9.98;3.35;;;;;;;22.07;54.24;101126.31;1811745;79;25773;-60
2021/08/28 09:07:33;;;;;;;6.45;3.10;;;;;;;22.04;53.18;101125.70;1812984;77;27477;-60
2021/08/28 09:10:00;;;;;;;8.78;3.92;;;;;;;21.97;51.76;101128.08;1811537;79;25792;-60
2021/08/28 09:12:39;;;;;;;8.20;3.65;;;;;;;21.88;51.80;101129.62;1812053;79;25636;-60
2021/08/28 09:15:12;;;;;;;5.25;3.20;;;;;;;21.76;52.16;101131.22;1811671;79;26128;-60
2021/08/28 09:17:39;;;;;;;10.03;3.50;;;;;;;21.70;52.94;101135.61;1814181;77;25902;-60
2021/08/28 09:20:20;;;;;;;6.60;4.65;;;;;;;21.62;52.82;101132.20;1811987;78;27461;-60
2021/08/28 09:22:47;;;;;;;8.08;4.72;;;;;;;21.47;53.19;101130.37;1811693;79;25721;-60
2021/08/28 09:25:25;;;;;;;7.90;3.83;;;;;;;21.42;53.81;101124.66;1813277;77;25763;-61
2021/08/28 09:27:52;;;;;;;11.28;3.70;;;;;;;21.44;53.96;101136.27;1836763;77;26149;-60
2021/08/28 09:30:30;;;;;;;10.68;4.15;;;;;;;21.43;54.50;101142.24;1836844;77;26277;-59
2021/08/28 09:33:02;;;;;;;7.15;3.75;;;;;;;21.46;54.99;101139.66;1837374;77;27450;-61
2021/08/28 09:35:42;;;;;;;8.03;4.92;;;;;;;21.47;54.98;101141.32;1843837;77;25648;-61
2021/08/28 09:38:20;;;;;;;12.50;5.75;;;;;;;21.54;55.10;101142.23;1841006;77;25727;-62
2021/08/28 09:40:58;;;;;;;19.62;6.03;;;;;;;21.71;55.85;101134.56;1826995;77;26189;-61
2021/08/28 09:43:27;;;;;;;16.00;6.30;;;;;;;21.91;56.54;101126.99;1784534;79;25713;-61
2021/08/28 09:45:57;;;;;;;14.70;6.20;;;;;;;22.38;56.58;101124.43;1784029;79;27418;-62
2021/08/28 09:48:29;;;;;;;8.53;5.80;;;;;;;23.31;54.77;101119.34;1785172;79;26081;-59
2021/08/28 09:50:59;;;;;;;8.28;5.17;;;;;;;24.15;52.33;101118.19;1790309;79;25704;-60
2021/08/28 09:53:34;;;;;;;10.08;6.65;;;;;;;24.12;51.54;101130.44;1777920;80;26069;-62
2021/08/28 09:56:07;;;;;;;12.47;6.37;;;;;;;24.06;51.19;101128.06;1772290;79;25823;-60
2021/08/28 09:58:33;;;;;;;14.87;6.35;;;;;;;24.50;50.69;101118.63;1772723;79;28188;-60
2021/08/28 10:01:04;;;;;;;11.55;5.80;;;;;;;24.59;50.27;101129.36;1758488;79;25712;-61
2021/08/28 10:03:32;;;;;;;11.93;6.10;;;;;;;24.47;50.52;101135.59;1759276;80;25657;-60
2021/08/28 10:06:01;;;;;;;10.53;4.95;;;;;;;24.44;50.77;101137.91;1759634;81;26149;-61
2021/08/28 10:08:32;;;;;;;9.30;5.45;;;;;;;24.59;50.34;101132.97;1759271;81;25899;-61
2021/08/28 10:11:01;;;;;;;7.08;5.50;;;;;;;24.84;50.12;101134.41;1759458;81;27558;-60
2021/08/28 10:13:30;;;;;;;9.43;5.50;;;;;;;25.52;49.17;101132.50;1759529;81;25694;-60
2021/08/28 10:15:59;;;;;;;11.28;5.95;;;;;;;25.92;47.71;101128.77;1759706;80;25510;-61
2021/08/28 10:18:26;;;;;;;10.15;5.80;;;;;;;26.34;47.04;101137.72;1759305;81;26079;-61
2021/08/28 10:20:59;;;;;;;10.85;5.20;;;;;;;26.34;46.23;101143.75;1758672;80;26106;-61
2021/08/28 10:23:30;;;;;;;8.40;4.80;;;;;;;26.19;46.20;101149.15;1756961;81;27470;-61
2021/08/28 10:25:58;;;;;;;7.65;4.47;;;;;;;26.18;45.85;101152.98;1757321;81;26319;-61
2021/08/28 10:28:27;;;;;;;7.03;4.55;;;;;;;25.88;45.38;101159.77;1766852;79;25690;-60
2021/08/28 10:30:54;;;;;;;7.80;4.92;;;;;;;25.59;45.30;101157.54;1788618;80;26770;-60
2021/08/28 10:33:21;;;;;;;7.97;5.22;;;;;;;25.36;45.85;101158.66;1788979;80;25288;-60
2021/08/28 10:35:48;;;;;;;7.90;4.90;;;;;;;25.22;46.92;101155.19;1788997;80;27481;-61
2021/08/28 10:38:16;;;;;;;9.00;4.25;;;;;;;25.18;46.97;101152.04;1788587;80;25749;-61
2021/08/28 10:40:45;;;;;;;9.63;5.53;;;;;;;25.15;47.27;101145.59;1789053;80;25783;-60
2021/08/28 10:43:13;;;;;;;8.50;5.58;;;;;;;25.23;46.66;101149.47;1782997;79;26322;-61
2021/08/28 10:45:41;;;;;;;8.13;5.65;;;;;;;25.28;46.86;101148.25;1772861;80;25784;-60
2021/08/28 10:48:26;;;;;;;6.70;5.05;;;;;;;25.43;46.91;101138.30;1772776;80;27547;-60
2021/08/28 10:50:53;;;;;;;12.23;5.17;;;;;;;25.73;46.40;101139.48;1774450;79;25706;-60
2021/08/28 10:53:21;;;;;;;7.92;4.83;;;;;;;25.82;46.46;101140.03;1774442;79;25771;-60
2021/08/28 10:55:49;;;;;;;12.63;5.22;;;;;;;26.02;46.02;101143.92;1782967;79;26080;-60
2021/08/28 10:58:23;;;;;;;7.35;5.15;;;;;;;26.27;45.52;101147.97;1786786;79;25449;-60
2021/08/28 11:00:54;;;;;;;10.53;5.00;;;;;;;26.37;44.57;101149.64;1783392;79;27463;-60
2021/08/28 11:03:30;;;;;;;10.63;4.95;;;;;;;26.37;44.61;101149.64;1786429;79;25748;-60
2021/08/28 11:06:19;;;;;;;7.42;4.45;;;;;;;26.62;44.51;101144.55;1790985;79;25756;-60
2021/08/28 11:08:51;;;;;;;14.75;5.12;;;;;;;27.00;44.72;101140.58;1791258;79;25861;-60
2021/08/28 11:11:35;;;;;;;6.53;4.08;;;;;;;27.34;42.47;101128.97;1775949;79;25706;-60
2021/08/28 11:14:07;;;;;;;10.13;4.67;;;;;;;27.35;42.69;101130.66;1790429;79;27419;-60
2021/08/28 11:16:48;;;;;;;7.10;4.60;;;;;;;27.28;42.09;101148.72;1780660;79;25802;-60
2021/08/28 11:19:32;;;;;;;15.65;5.50;;;;;;;26.97;41.82;101147.11;1779797;79;25704;-60
2021/08/28 11:21:59;;;;;;;11.38;4.28;;;;;;;26.70;42.73;101151.11;1770865;79;26084;-60
2021/08/28 11:24:28;;;;;;;9.63;4.08;;;;;;;26.55;43.02;101155.67;1772671;80;25811;-60
2021/08/28 11:27:04;;;;;;;7.70;4.70;;;;;;;26.60;42.91;101151.35;1735230;82;27466;-60
2021/08/28 11:29:43;;;;;;;10.75;4.17;;;;;;;26.63;42.61;101150.34;1735839;82;25781;-60
2021/08/28 11:32:22;;;;;;;7.92;4.25;;;;;;;26.85;41.93;101144.33;1802886;79;25697;-60
2021/08/28 11:34:56;;;;;;;8.00;4.55;;;;;;;27.30;41.86;101138.28;1804892;79;26920;-60
2021/08/28 11:37:35;;;;;;;7.72;4.95;;;;;;;27.60;42.05;101124.92;1798325;79;25738;-60
2021/08/28 11:40:23;;;;;;;11.48;4.92;;;;;;;28.09;41.37;101115.45;1804858;79;27490;-61
2021/08/28 11:42:51;;;;;;;10.30;4.70;;;;;;;28.79;40.61;101122.33;1817351;78;25890;-61
2021/08/28 11:45:19;;;;;;;7.10;4.97;;;;;;;29.00;40.59;101119.36;1832027;78;25742;-61
2021/08/28 11:47:46;;;;;;;9.23;5.28;;;;;;;29.32;39.17;101118.24;1800194;78;26087;-61